createdAt,value
2022-12-02T00:03:44.736Z,2.28
2022-12-02T00:07:43.721Z,2.28
2022-12-02T00:11:42.931Z,2.28
2022-12-02T00:15:42.829Z,2.28
2022-12-02T00:19:43.411Z,2.28
2022-12-02T00:23:43.027Z,2.28
2022-12-02T00:27:42.590Z,2.28
2022-12-02T00:31:43.668Z,2.28
2022-12-02T00:35:43.116Z,2.28
2022-12-02T00:39:43.066Z,2.28
2022-12-02T00:43:43.944Z,2.28
2022-12-02T00:47:43.753Z,21.01
2022-12-02T00:51:43.309Z,3477.37
2022-12-02T00:55:43.001Z,3477.37
2022-12-02T00:59:42.933Z,3477.37
2022-12-02T01:03:46.074Z,3477.37
2022-12-02T01:07:43.561Z,3477.37
2022-12-02T01:11:43.272Z,3477.37
2022-12-02T01:15:42.804Z,3477.37
2022-12-02T01:19:42.926Z,3477.37
2022-12-02T01:23:42.441Z,3477.37
2022-12-02T01:27:43.531Z,3477.37
2022-12-02T01:31:43.440Z,3477.37
2022-12-02T01:35:43.110Z,3477.37
2022-12-02T01:39:42.895Z,3477.37
2022-12-02T01:43:42.741Z,3477.37
2022-12-02T01:47:43.599Z,3477.37
2022-12-02T01:51:42.760Z,3477.37
2022-12-02T01:55:43.627Z,3477.37
2022-12-02T01:59:42.860Z,10443.7
2022-12-02T02:03:43.812Z,10443.7
2022-12-02T02:07:42.924Z,10443.7
2022-12-02T02:11:42.876Z,10443.7
2022-12-02T02:15:43.596Z,10443.7
2022-12-02T02:19:46.791Z,10443.7
2022-12-02T02:23:43.027Z,10443.7
2022-12-02T02:27:43.439Z,10443.7
2022-12-02T02:31:44.388Z,10443.7
2022-12-02T02:35:42.984Z,10443.7
2022-12-02T02:39:43.127Z,10443.7
2022-12-02T02:43:42.685Z,10443.7
2022-12-02T02:47:43.152Z,10443.7
2022-12-02T02:51:43.408Z,10443.7
2022-12-02T02:55:43.153Z,10443.7
2022-12-02T02:59:43.108Z,10443.7
2022-12-02T03:03:43.358Z,13314.7
2022-12-02T03:07:43.051Z,36.3
2022-12-02T03:11:42.613Z,36.3
2022-12-02T03:15:46.572Z,36.3
2022-12-02T03:19:43.387Z,36.3
2022-12-02T03:23:43.280Z,36.3
2022-12-02T03:27:42.996Z,36.3
2022-12-02T03:31:48.952Z,36.3
2022-12-02T03:35:43.551Z,36.3
2022-12-02T03:39:42.922Z,36.3
2022-12-02T03:43:42.931Z,36.3
2022-12-02T03:47:43.525Z,36.3
2022-12-02T03:51:42.862Z,36.3
2022-12-02T03:55:51.027Z,36.3
2022-12-02T03:59:42.839Z,36.3
2022-12-02T04:03:44.215Z,36.3
2022-12-02T04:07:43.086Z,36.3
2022-12-02T04:11:42.786Z,36.3
2022-12-02T04:15:43.368Z,36.3
2022-12-02T04:19:43.099Z,36.3
2022-12-02T04:23:42.530Z,36.3
2022-12-02T04:27:50.922Z,36.3
2022-12-02T04:31:43.930Z,36.3
2022-12-02T04:35:43.027Z,36.3
2022-12-02T04:39:42.879Z,36.3
2022-12-02T04:43:43.318Z,36.3
2022-12-02T04:47:43.787Z,36.3
2022-12-02T04:51:43.120Z,36.3
2022-12-02T04:55:42.801Z,36.3
2022-12-02T04:59:43.331Z,36.3
2022-12-02T05:03:43.197Z,36.3
2022-12-02T05:07:43.404Z,36.3
2022-12-02T05:11:47.901Z,36.3
2022-12-02T05:15:43.001Z,36.3
2022-12-02T05:19:43.424Z,36.3
2022-12-02T05:23:43.034Z,36.3
2022-12-02T05:27:47.096Z,36.3
2022-12-02T05:31:44.151Z,36.3
2022-12-02T05:35:43.173Z,36.3
2022-12-02T05:39:46.640Z,36.3
2022-12-02T05:43:43.238Z,36.3
2022-12-02T05:47:43.486Z,36.3
2022-12-02T05:51:47.775Z,36.3
2022-12-02T05:55:43.198Z,36.3
2022-12-02T05:59:43.560Z,36.3
2022-12-02T06:03:49.912Z,36.3
2022-12-02T06:07:43.204Z,36.3
2022-12-02T06:11:42.721Z,36.3
2022-12-02T06:15:43.858Z,36.3
2022-12-02T06:19:48.824Z,36.3
2022-12-02T06:23:43.038Z,36.3
2022-12-02T06:27:43.659Z,36.3
2022-12-02T06:31:43.578Z,36.3
2022-12-02T06:35:42.866Z,36.3
2022-12-02T06:40:29.745Z,36.3
2022-12-02T06:43:42.749Z,36.3
2022-12-02T06:47:43.548Z,36.3
2022-12-02T06:51:49.962Z,36.3
2022-12-02T06:55:42.929Z,36.3
2022-12-02T06:59:42.577Z,36.3
2022-12-02T07:03:50.454Z,36.3
2022-12-02T07:07:43.136Z,36.3
2022-12-02T07:11:43.755Z,36.3
2022-12-02T07:15:43.502Z,36.3
2022-12-02T07:19:43.316Z,36.3
2022-12-02T07:23:42.988Z,36.3
2022-12-02T07:27:50.487Z,36.3
2022-12-02T07:31:43.384Z,36.3
2022-12-02T07:35:48.552Z,36.3
2022-12-02T07:40:23.283Z,36.3
2022-12-02T07:43:42.577Z,36.3
2022-12-02T07:47:43.882Z,36.3
2022-12-02T07:51:42.869Z,36.3
2022-12-02T07:55:49.099Z,36.3
2022-12-02T08:00:20.618Z,36.3
2022-12-02T08:03:43.441Z,36.3
2022-12-02T08:07:48.053Z,36.3
2022-12-02T08:11:43.229Z,36.3
2022-12-02T08:15:43.270Z,36.3
2022-12-02T08:19:42.592Z,36.3
2022-12-02T08:23:43.407Z,36.3
2022-12-02T08:27:45.284Z,36.3
2022-12-02T08:31:44.230Z,36.3
2022-12-02T08:35:48.979Z,36.3
2022-12-02T08:39:42.696Z,36.3
2022-12-02T08:43:43.317Z,36.3
2022-12-02T08:47:50.488Z,36.3
2022-12-02T08:51:43.188Z,36.3
2022-12-02T08:55:43.061Z,36.3
2022-12-02T08:59:43.059Z,36.3
2022-12-02T09:03:43.505Z,36.3
2022-12-02T09:07:44.315Z,36.3
2022-12-02T09:11:43.665Z,36.3
2022-12-02T09:15:43.145Z,36.3
2022-12-02T09:19:45.047Z,36.3
2022-12-02T09:23:48.932Z,36.3
2022-12-02T09:27:42.654Z,36.3
2022-12-02T09:31:44.369Z,36.3
2022-12-02T09:35:42.930Z,36.3
2022-12-02T09:39:50.203Z,36.3
2022-12-02T09:43:43.157Z,36.3
2022-12-02T09:47:44.056Z,36.3
2022-12-02T09:51:43.527Z,36.3
2022-12-02T09:55:43.012Z,36.3
2022-12-02T09:59:42.794Z,36.3
2022-12-02T10:03:52.190Z,36.3
2022-12-02T10:07:43.611Z,36.3
2022-12-02T10:11:43.157Z,36.3
2022-12-02T10:15:42.804Z,129.31
2022-12-02T10:19:43.585Z,23.26
2022-12-02T10:23:50.485Z,19.96
2022-12-02T10:27:42.902Z,3167.37
2022-12-02T10:31:43.373Z,2125.93
2022-12-02T10:35:42.635Z,2041.56
2022-12-02T10:39:49.611Z,1572.66
2022-12-02T10:43:42.828Z,1349.76
2022-12-02T10:47:49.230Z,3.61
2022-12-02T10:51:43.430Z,3.22
2022-12-02T10:56:02.070Z,2.97
2022-12-02T10:59:42.845Z,2.97
2022-12-02T11:03:44.207Z,976.82
2022-12-02T11:07:43.132Z,2.55
2022-12-02T11:11:42.735Z,2.58
2022-12-02T11:15:42.917Z,2.49
2022-12-02T11:19:43.385Z,2.49
2022-12-02T11:23:43.221Z,2.49
2022-12-02T11:27:50.488Z,2.49
2022-12-02T11:31:43.646Z,2.49
2022-12-02T11:36:23.044Z,2.49
2022-12-02T11:39:44.364Z,2.49
2022-12-02T11:43:43.113Z,2.49
2022-12-02T11:47:44.139Z,2.49
2022-12-02T11:51:42.846Z,2.49
2022-12-02T11:55:43.370Z,2.49
2022-12-02T11:59:43.067Z,2.49
2022-12-02T12:03:44.234Z,2.49
2022-12-02T12:07:43.881Z,2.49
2022-12-02T12:11:43.084Z,2.49
2022-12-02T12:15:42.835Z,2.49
2022-12-02T12:19:49.459Z,2.49
2022-12-02T12:23:43.356Z,2.49
2022-12-02T12:27:42.507Z,2.49
2022-12-02T12:31:49.859Z,2.49
2022-12-02T12:35:43.520Z,2.49
2022-12-02T12:39:49.209Z,2.49
2022-12-02T12:43:43.940Z,2.49
2022-12-02T12:47:45.272Z,2.49
2022-12-02T12:51:48.969Z,2.49
2022-12-02T12:55:43.012Z,2.49
2022-12-02T12:59:42.593Z,2.49
2022-12-02T13:03:43.852Z,2.49
2022-12-02T13:07:50.383Z,2.49
2022-12-02T13:11:43.281Z,2.49
2022-12-02T13:15:42.947Z,2.49
2022-12-02T13:19:42.755Z,2.49
2022-12-02T13:23:43.276Z,14475.7
2022-12-02T13:27:45.702Z,11.19
2022-12-02T13:31:50.616Z,11.19
2022-12-02T13:35:45.636Z,2147.45
2022-12-02T13:39:51.068Z,4.07
2022-12-02T13:43:43.257Z,4.07
2022-12-02T13:47:43.827Z,1206.04
2022-12-02T13:51:43.084Z,1024.66
2022-12-02T13:55:42.642Z,1024.66
2022-12-02T13:59:49.449Z,1024.66
2022-12-02T14:03:43.614Z,1024.66
2022-12-02T14:07:43.058Z,1024.66
2022-12-02T14:11:44.827Z,1024.66
2022-12-02T14:15:43.276Z,1024.66
2022-12-02T14:19:43.067Z,1024.66
2022-12-02T14:23:43.489Z,1024.66
2022-12-02T14:27:43.092Z,1024.66
2022-12-02T14:31:57.770Z,1024.66
2022-12-02T14:35:54.796Z,1024.66
2022-12-02T14:39:43.019Z,1024.66
2022-12-02T14:43:48.256Z,1024.66
2022-12-02T14:47:43.347Z,1024.66
2022-12-02T14:51:43.978Z,1024.66
2022-12-02T14:55:43.040Z,1024.66
2022-12-02T14:59:48.768Z,17.85
2022-12-02T15:03:44.331Z,17.85
2022-12-02T15:07:42.908Z,17.85
2022-12-02T15:11:49.262Z,17.85
2022-12-02T15:16:25.363Z,17.85
2022-12-02T15:19:43.010Z,17.85
2022-12-02T15:23:42.693Z,17.85
2022-12-02T15:27:50.077Z,17.85
2022-12-02T15:31:44.173Z,17.85
2022-12-02T15:35:42.613Z,17.85
2022-12-02T15:39:43.855Z,17.85
2022-12-02T15:43:44.437Z,17.85
2022-12-02T15:47:43.975Z,17.85
2022-12-02T15:51:50.887Z,17.85
2022-12-02T15:55:42.781Z,17.85
2022-12-02T15:59:43.562Z,17.85
2022-12-02T16:03:52.082Z,17.85
2022-12-02T16:07:43.120Z,17.85
2022-12-02T16:11:45.702Z,17.85
2022-12-02T16:15:50.444Z,17.85
2022-12-02T16:19:42.693Z,17.85
2022-12-02T16:23:43.112Z,17.85
2022-12-02T16:27:51.512Z,17.85
2022-12-02T16:31:43.610Z,17.85
2022-12-02T16:35:43.058Z,17.85
2022-12-02T16:39:46.006Z,17.85
2022-12-02T16:43:43.183Z,17.85
2022-12-02T16:47:43.400Z,17.85
2022-12-02T16:51:48.923Z,17.85
2022-12-02T16:55:43.312Z,17.85
2022-12-02T16:59:43.242Z,17.85
2022-12-02T17:03:51.324Z,17.85
2022-12-02T17:07:43.829Z,17.85
2022-12-02T17:11:43.418Z,17.85
2022-12-02T17:15:49.723Z,17.85
2022-12-02T17:19:42.810Z,17.85
2022-12-02T17:23:43.713Z,17.85
2022-12-02T17:27:50.523Z,17.85
2022-12-02T17:31:43.384Z,17.85
2022-12-02T17:35:42.886Z,17.85
2022-12-02T17:39:48.610Z,17.85
2022-12-02T17:43:43.244Z,17.85
2022-12-02T17:47:43.755Z,17.85
2022-12-02T17:52:00.600Z,17.85
2022-12-02T17:55:44.846Z,17.85
2022-12-02T17:59:43.502Z,17.85
2022-12-02T18:03:44.528Z,17.85
2022-12-02T18:07:44.185Z,17.85
2022-12-02T18:11:43.609Z,17.85
2022-12-02T18:15:43.963Z,17.85
2022-12-02T18:19:42.575Z,17.85
2022-12-02T18:23:49.999Z,17.85
2022-12-02T18:27:43.012Z,17.85
2022-12-02T18:31:48.673Z,17.85
2022-12-02T18:35:42.535Z,17.85
2022-12-02T18:39:43.417Z,17.85
2022-12-02T18:43:47.833Z,17.85
2022-12-02T18:47:43.226Z,17.85
2022-12-02T18:51:42.907Z,17.85
2022-12-02T18:55:43.490Z,17.85
2022-12-02T18:59:43.427Z,17.85
2022-12-02T19:03:43.948Z,17.85
2022-12-02T19:07:43.534Z,17.85
2022-12-02T19:11:43.404Z,17.85
2022-12-02T19:15:49.803Z,17.85
2022-12-02T19:19:42.785Z,17.85
2022-12-02T19:23:43.388Z,17.85
2022-12-02T19:28:20.590Z,17.85
2022-12-02T19:31:44.562Z,17.85
2022-12-02T19:35:43.400Z,17.85
2022-12-02T19:39:49.138Z,17.85
2022-12-02T19:43:47.440Z,17.85
2022-12-02T19:47:45.211Z,17.85
2022-12-02T19:51:43.514Z,17.85
2022-12-02T19:55:48.259Z,17.85
2022-12-02T19:59:42.809Z,17.85
2022-12-02T20:03:44.927Z,17.85
2022-12-02T20:07:50.675Z,17.85
2022-12-02T20:11:42.814Z,17.85
2022-12-02T20:15:42.853Z,17.85
2022-12-02T20:19:43.675Z,17.85
2022-12-02T20:23:43.128Z,17.85
2022-12-02T20:27:42.555Z,17.85
2022-12-02T20:31:44.070Z,17.85
2022-12-02T20:35:43.019Z,17.85
2022-12-02T20:39:42.867Z,17.85
2022-12-02T20:43:43.411Z,17.85
2022-12-02T20:47:44.038Z,17.85
2022-12-02T20:51:42.650Z,17.85
2022-12-02T20:55:43.424Z,17.85
2022-12-02T20:59:43.052Z,17.85
2022-12-02T21:03:43.753Z,17.85
2022-12-02T21:07:44.127Z,17.85
2022-12-02T21:11:43.015Z,17.85
2022-12-02T21:15:42.807Z,17.85
2022-12-02T21:19:46.031Z,17.85
2022-12-02T21:23:43.223Z,17.85
2022-12-02T21:27:42.841Z,17.85
2022-12-02T21:31:43.092Z,17.85
2022-12-02T21:35:44.124Z,17.85
2022-12-02T21:39:42.768Z,17.85
2022-12-02T21:43:49.785Z,17.85
2022-12-02T21:47:44.025Z,17.85
2022-12-02T21:51:43.666Z,17.85
2022-12-02T21:55:43.077Z,17.85
2022-12-02T21:59:42.801Z,17.85
2022-12-02T22:03:48.874Z,17.85
2022-12-02T22:07:43.842Z,17.85
2022-12-02T22:11:43.165Z,17.85
2022-12-02T22:15:42.836Z,17.85
2022-12-02T22:19:49.109Z,17.85
2022-12-02T22:23:43.157Z,17.85
2022-12-02T22:27:49.657Z,17.85
2022-12-02T22:31:43.787Z,17.85
2022-12-02T22:35:42.831Z,17.85
2022-12-02T22:39:48.788Z,17.85
2022-12-02T22:43:43.417Z,17.85
2022-12-02T22:47:43.288Z,17.85
2022-12-02T22:51:47.080Z,17.85
2022-12-02T22:55:42.802Z,17.85
2022-12-02T22:59:43.475Z,17.85
2022-12-02T23:03:48.625Z,17.85
2022-12-02T23:07:42.693Z,17.85
2022-12-02T23:11:43.684Z,17.85
2022-12-02T23:16:19.328Z,17.85
2022-12-02T23:19:42.720Z,17.85
2022-12-02T23:23:44.004Z,17.85
2022-12-02T23:27:43.168Z,17.85
2022-12-02T23:31:49.149Z,17.85
2022-12-02T23:35:42.772Z,17.85
2022-12-02T23:39:43.430Z,17.85
2022-12-02T23:43:46.038Z,17.85
2022-12-02T23:47:43.383Z,17.85
2022-12-02T23:51:49.730Z,17.85
2022-12-02T23:55:43.302Z,17.85
2022-12-02T23:59:43.514Z,17.85
